Bookmark and Share
Track history (hours):
 

Mugan

Last reported at 2013-Apr-23 11:33 UTC. Time now 2014-Apr-24 00:10 UTC.
Position N 41°19' E 029°37'.
Warning: this ship's position is years out of date!

NotesDate/timePositionNaut miles runAvg speedWind from/ knotsBaromVisibWave heightAir tempDewpointWater temp
2013-Apr-23 11:33N 41°19' E 029°37'9 9.0
2013-Apr-23 10:33N 41°17' E 029°26'31 6.1
2013-Apr-23 05:33N 40°55' E 028°57'5 0.2
2013-Apr-22 06:24N 40°54' E 028°51'  
2013-Apr-18 19:32N 34°24' E 032°42'8 8.1
2013-Apr-18 18:34N 34°19' E 032°50'73952.8
2013-Apr-18 04:33N 46°37' E 031°52'822128707.1
2013-Apr-18 04:33N 33°05' E 034°37'8 8.4
2013-Apr-18 03:33N 33°00' E 034°45'8283054.1
2013-Apr-18 03:17N 46°35' E 031°35'8341153.5
2013-Apr-18 02:34N 32°55' E 034°54'83516791.9
2013-Apr-18 02:31N 46°35' E 031°27'841874.7
2013-Apr-18 01:33N 32°50' E 035°01'1 1.1
2013-Apr-18 00:33N 32°49' E 035°00'0 0.0
2013-Apr-17 23:33N 32°49' E 035°00'0 0.0
2013-Apr-17 22:33N 32°49' E 035°00'0 0.0
2013-Apr-17 21:33N 32°49' E 035°00'0 0.0
2013-Apr-17 20:33N 32°49' E 035°00'0 0.0
2013-Apr-17 19:33N 32°49' E 035°00'0 0.0
2013-Apr-17 18:33N 32°49' E 035°00'0 0.0
2013-Apr-17 17:33N 32°49' E 035°00'0 0.0
2013-Apr-17 16:33N 32°49' E 035°00'0 0.0
2013-Apr-17 15:33N 32°49' E 035°00'0 0.0
2013-Apr-17 14:33N 32°49' E 035°00'0 0.0
2013-Apr-17 13:33N 32°49' E 035°00'0 0.0
2013-Apr-17 12:33N 32°49' E 035°00'0 0.0
2013-Apr-17 11:33N 32°49' E 035°00'0 0.0
2013-Apr-17 10:33N 32°49' E 035°00'0 0.0
2013-Apr-17 09:33N 32°49' E 035°00'0 0.0
2013-Apr-17 08:33N 32°49' E 035°00'0 0.0
2013-Apr-17 07:33N 32°49' E 035°00'0 0.0
2013-Apr-17 06:33N 32°49' E 035°00'0 0.0
2013-Apr-17 04:33N 32°49' E 035°00'0 0.0
2013-Apr-17 03:33N 32°49' E 035°00'0 0.0
2013-Apr-17 02:33N 32°49' E 035°00'0 0.0
2013-Apr-17 01:33N 32°49' E 035°00'0 0.0
2013-Apr-17 00:33N 32°49' E 035°00'0 0.0
2013-Apr-16 23:33N 32°49' E 035°00'0 0.0
2013-Apr-16 22:33N 32°49' E 035°00'0 0.0
2013-Apr-16 21:33N 32°49' E 035°00'0 0.0
2013-Apr-16 20:33N 32°49' E 035°00'1 1.1
2013-Apr-16 19:33N 32°50' E 035°01'3 2.7
2013-Apr-16 18:33N 32°53' E 035°01'0 0.0
2013-Apr-16 17:33N 32°53' E 035°01'0 0.0
2013-Apr-16 16:33N 32°53' E 035°01'0 0.0
2013-Apr-16 15:33N 32°53' E 035°01'0 0.0
2013-Apr-16 14:33N 32°53' E 035°01'0 0.0
2013-Apr-16 13:33N 32°53' E 035°01'0 0.0
2013-Apr-16 12:33N 32°53' E 035°01'0 0.0
2013-Apr-16 11:33N 32°53' E 035°01'0 0.0
2013-Apr-16 10:33N 32°53' E 035°01'0 0.0
2013-Apr-16 09:33N 32°53' E 035°01'0 0.0
2013-Apr-16 08:33N 32°53' E 035°01'0 0.0
2013-Apr-16 07:33N 32°53' E 035°01'0 0.0
2013-Apr-16 06:33N 32°53' E 035°01'0 0.0
2013-Apr-16 04:33N 32°53' E 035°01'0 0.0
2013-Apr-16 03:33N 32°53' E 035°01'0 0.0
2013-Apr-16 02:33N 32°53' E 035°01'0 0.0
2013-Apr-16 01:33N 32°53' E 035°01'0 0.0
2013-Apr-16 00:33N 32°53' E 035°01'0 0.0
2013-Apr-15 23:33N 32°53' E 035°01'0 0.0
2013-Apr-15 22:33N 32°53' E 035°01'0 0.0
2013-Apr-15 21:33N 32°53' E 035°01'0 0.0
2013-Apr-15 20:33N 32°53' E 035°01'0 0.0
2013-Apr-15 19:30N 32°53' E 035°01'0 0.0
2013-Apr-15 18:33N 32°53' E 035°01'0 0.0
2013-Apr-15 17:33N 32°53' E 035°01'0 0.0
2013-Apr-15 16:30N 32°53' E 035°01'0 0.0
2013-Apr-15 15:33N 32°53' E 035°01'0 0.0
2013-Apr-15 14:33N 32°53' E 035°01'0 0.0
2013-Apr-15 13:33N 32°53' E 035°01'0 0.0
2013-Apr-15 12:33N 32°53' E 035°01'0 0.0
2013-Apr-15 11:33N 32°53' E 035°01'0 0.0
2013-Apr-15 10:33N 32°53' E 035°01'0 0.0
2013-Apr-15 09:33N 32°53' E 035°01'0 0.0
2013-Apr-15 08:33N 32°53' E 035°01'0 0.0
2013-Apr-15 07:33N 32°53' E 035°01'0 0.0
2013-Apr-15 06:33N 32°53' E 035°01'0 0.0
2013-Apr-15 04:33N 32°53' E 035°01'0 0.1
2013-Apr-15 03:33N 32°53' E 035°01'0 0.0
2013-Apr-15 02:33N 32°53' E 035°01'0 0.1
2013-Apr-15 01:33N 32°53' E 035°01'0 0.0
2013-Apr-15 00:33N 32°53' E 035°01'0 0.0
2013-Apr-14 23:33N 32°53' E 035°01'0 0.0
2013-Apr-14 22:30N 32°53' E 035°01'0 0.0
2013-Apr-14 21:33N 32°53' E 035°01'0 0.0
2013-Apr-14 20:33N 32°53' E 035°01'0 0.0
2013-Apr-14 19:33N 32°53' E 035°01'0 0.0
2013-Apr-14 18:33N 32°53' E 035°01'0 0.0
2013-Apr-14 17:33N 32°53' E 035°01'0 0.0
2013-Apr-14 16:33N 32°53' E 035°01'0 0.0
2013-Apr-14 15:33N 32°53' E 035°01'0 0.0
2013-Apr-14 14:33N 32°53' E 035°01'0 0.0
2013-Apr-14 13:33N 32°53' E 035°01'0 0.0
2013-Apr-14 12:33N 32°53' E 035°01'0 0.0
2013-Apr-14 11:33N 32°53' E 035°01'0 0.0
2013-Apr-14 10:33N 32°53' E 035°01'3 2.5
2013-Apr-14 09:33N 32°54' E 034°58'10 9.6
2013-Apr-14 08:32N 32°57' E 034°47'124 8.9
2013-Apr-13 18:33N 33°50' E 032°33'9 8.8
2013-Apr-13 17:33N 33°54' E 032°24'9 8.7
2013-Apr-13 16:33N 33°58' E 032°14'9 8.8
2013-Apr-13 15:33N 34°02' E 032°05'744178631.7
2013-Apr-13 15:33N 46°24' E 030°55'740747.2
2013-Apr-13 14:33N 34°06' E 031°55'74864102.7
2013-Apr-13 14:33N 46°32' E 030°56'744750.3
2013-Apr-13 13:33N 34°09' E 031°46'9 8.6
2013-Apr-13 12:33N 34°13' E 031°37'  

Dump ship's entire track history

sailing weather and tide predictions

Mugan — 9HA2962 — position and weather